sensor_id;sensor_type;location;lat;lon;timestamp;temperature;humidity
69823;SHT31;57119;52.516;13.508;2023-04-01T00:01:30;9.33;99.99
69823;SHT31;57119;52.516;13.508;2023-04-01T00:03:56;9.41;99.99
69823;SHT31;57119;52.516;13.508;2023-04-01T00:06:21;9.33;99.99
69823;SHT31;57119;52.516;13.508;2023-04-01T00:08:47;9.34;99.99
69823;SHT31;57119;52.516;13.508;2023-04-01T00:11:13;9.34;99.99
69823;SHT31;57119;52.516;13.508;2023-04-01T00:13:38;9.33;99.99
69823;SHT31;57119;52.516;13.508;2023-04-01T00:16:04;9.40;99.99
69823;SHT31;57119;52.516;13.508;2023-04-01T00:18:30;9.34;99.99
69823;SHT31;57119;52.516;13.508;2023-04-01T00:20:55;9.33;99.99
69823;SHT31;57119;52.516;13.508;2023-04-01T00:23:21;9.33;99.99
69823;SHT31;57119;52.516;13.508;2023-04-01T00:25:47;9.34;99.99
69823;SHT31;57119;52.516;13.508;2023-04-01T00:28:14;9.40;99.99
69823;SHT31;57119;52.516;13.508;2023-04-01T00:30:40;9.38;99.99
69823;SHT31;57119;52.516;13.508;2023-04-01T00:33:05;9.34;99.99
69823;SHT31;57119;52.516;13.508;2023-04-01T00:35:31;9.41;99.99
69823;SHT31;57119;52.516;13.508;2023-04-01T00:37:57;9.41;99.99
69823;SHT31;57119;52.516;13.508;2023-04-01T00:40:30;9.37;99.99
69823;SHT31;57119;52.516;13.508;2023-04-01T00:42:56;9.31;99.99
69823;SHT31;57119;52.516;13.508;2023-04-01T00:45:39;9.47;99.99
69823;SHT31;57119;52.516;13.508;2023-04-01T00:48:14;9.38;99.99
69823;SHT31;57119;52.516;13.508;2023-04-01T00:50:46;9.34;99.99
69823;SHT31;57119;52.516;13.508;2023-04-01T00:53:12;9.31;99.99
69823;SHT31;57119;52.516;13.508;2023-04-01T00:55:41;9.43;99.99
69823;SHT31;57119;52.516;13.508;2023-04-01T00:58:09;9.41;99.99
69823;SHT31;57119;52.516;13.508;2023-04-01T01:00:36;9.44;99.99
69823;SHT31;57119;52.516;13.508;2023-04-01T01:03:02;9.51;99.99
69823;SHT31;57119;52.516;13.508;2023-04-01T01:05:45;9.55;99.99
69823;SHT31;57119;52.516;13.508;2023-04-01T01:08:28;9.59;99.99
69823;SHT31;57119;52.516;13.508;2023-04-01T01:10:55;9.55;99.99
69823;SHT31;57119;52.516;13.508;2023-04-01T01:13:38;9.55;99.99
69823;SHT31;57119;52.516;13.508;2023-04-01T01:16:24;9.50;99.99
69823;SHT31;57119;52.516;13.508;2023-04-01T01:19:27;9.50;99.99
69823;SHT31;57119;52.516;13.508;2023-04-01T01:22:35;9.54;99.99
69823;SHT31;57119;52.516;13.508;2023-04-01T01:25:56;9.54;99.99
69823;SHT31;57119;52.516;13.508;2023-04-01T01:31:23;9.47;99.99
69823;SHT31;57119;52.516;13.508;2023-04-01T01:36:59;9.52;99.99
69823;SHT31;57119;52.516;13.508;2023-04-01T01:39:28;9.57;99.99
69823;SHT31;57119;52.516;13.508;2023-04-01T01:41:57;9.51;99.99
69823;SHT31;57119;52.516;13.508;2023-04-01T01:44:26;9.50;99.99
69823;SHT31;57119;52.516;13.508;2023-04-01T01:46:53;9.55;99.99
69823;SHT31;57119;52.516;13.508;2023-04-01T01:49:19;9.58;99.99
69823;SHT31;57119;52.516;13.508;2023-04-01T01:51:45;9.47;99.99
69823;SHT31;57119;52.516;13.508;2023-04-01T01:54:17;9.48;99.99
69823;SHT31;57119;52.516;13.508;2023-04-01T01:56:46;9.44;99.99
69823;SHT31;57119;52.516;13.508;2023-04-01T01:59:14;9.50;99.99
69823;SHT31;57119;52.516;13.508;2023-04-01T02:01:43;9.61;99.99
69823;SHT31;57119;52.516;13.508;2023-04-01T02:04:11;9.67;99.99
69823;SHT31;57119;52.516;13.508;2023-04-01T02:06:41;9.71;99.99
69823;SHT31;57119;52.516;13.508;2023-04-01T02:09:09;9.74;99.99
69823;SHT31;57119;52.516;13.508;2023-04-01T02:11:48;9.68;99.99
69823;SHT31;57119;52.516;13.508;2023-04-01T02:14:20;9.58;99.99
69823;SHT31;57119;52.516;13.508;2023-04-01T02:19:24;9.70;99.99
69823;SHT31;57119;52.516;13.508;2023-04-01T02:21:55;9.74;99.99
69823;SHT31;57119;52.516;13.508;2023-04-01T02:24:23;9.70;99.99
69823;SHT31;57119;52.516;13.508;2023-04-01T02:26:51;9.64;99.99
69823;SHT31;57119;52.516;13.508;2023-04-01T02:29:18;9.64;99.99
69823;SHT31;57119;52.516;13.508;2023-04-01T02:31:44;9.68;99.99
69823;SHT31;57119;52.516;13.508;2023-04-01T02:34:10;9.67;99.99
69823;SHT31;57119;52.516;13.508;2023-04-01T02:36:36;9.67;99.99
69823;SHT31;57119;52.516;13.508;2023-04-01T02:39:03;9.68;99.99
69823;SHT31;57119;52.516;13.508;2023-04-01T02:41:29;9.74;99.99
69823;SHT31;57119;52.516;13.508;2023-04-01T02:43:55;9.68;99.99
69823;SHT31;57119;52.516;13.508;2023-04-01T02:46:22;9.71;99.99
69823;SHT31;57119;52.516;13.508;2023-04-01T02:48:47;9.75;99.99
69823;SHT31;57119;52.516;13.508;2023-04-01T02:51:13;9.67;99.99
69823;SHT31;57119;52.516;13.508;2023-04-01T02:53:38;9.68;99.99
69823;SHT31;57119;52.516;13.508;2023-04-01T02:56:04;9.64;99.99
69823;SHT31;57119;52.516;13.508;2023-04-01T02:58:29;9.59;99.99
69823;SHT31;57119;52.516;13.508;2023-04-01T03:00:55;9.57;99.99
69823;SHT31;57119;52.516;13.508;2023-04-01T03:03:20;9.64;99.99
69823;SHT31;57119;52.516;13.508;2023-04-01T03:05:45;9.61;99.99
69823;SHT31;57119;52.516;13.508;2023-04-01T03:08:11;9.61;99.99
69823;SHT31;57119;52.516;13.508;2023-04-01T03:10:37;9.64;99.99
69823;SHT31;57119;52.516;13.508;2023-04-01T03:13:02;9.61;99.99
69823;SHT31;57119;52.516;13.508;2023-04-01T03:15:27;9.64;99.99
69823;SHT31;57119;52.516;13.508;2023-04-01T03:17:53;9.62;99.99
69823;SHT31;57119;52.516;13.508;2023-04-01T03:20:18;9.62;99.99
69823;SHT31;57119;52.516;13.508;2023-04-01T03:22:45;9.62;99.99
69823;SHT31;57119;52.516;13.508;2023-04-01T03:25:11;9.57;99.99
69823;SHT31;57119;52.516;13.508;2023-04-01T03:27:36;9.54;99.99
69823;SHT31;57119;52.516;13.508;2023-04-01T03:30:06;9.54;99.99
69823;SHT31;57119;52.516;13.508;2023-04-01T03:32:31;9.59;99.99
69823;SHT31;57119;52.516;13.508;2023-04-01T03:34:57;9.52;99.99
69823;SHT31;57119;52.516;13.508;2023-04-01T03:37:23;9.52;99.99
69823;SHT31;57119;52.516;13.508;2023-04-01T03:39:49;9.48;99.99
69823;SHT31;57119;52.516;13.508;2023-04-01T03:42:14;9.50;99.99
69823;SHT31;57119;52.516;13.508;2023-04-01T03:44:40;9.47;99.99
69823;SHT31;57119;52.516;13.508;2023-04-01T03:47:05;9.48;99.99
69823;SHT31;57119;52.516;13.508;2023-04-01T03:49:31;9.50;99.99
69823;SHT31;57119;52.516;13.508;2023-04-01T03:51:57;9.51;99.99
69823;SHT31;57119;52.516;13.508;2023-04-01T03:54:23;9.62;99.99
69823;SHT31;57119;52.516;13.508;2023-04-01T03:56:48;9.54;99.99
69823;SHT31;57119;52.516;13.508;2023-04-01T03:59:13;9.55;99.99
69823;SHT31;57119;52.516;13.508;2023-04-01T04:01:39;9.54;99.99
69823;SHT31;57119;52.516;13.508;2023-04-01T04:04:05;9.52;99.99
69823;SHT31;57119;52.516;13.508;2023-04-01T04:06:30;9.55;99.99
69823;SHT31;57119;52.516;13.508;2023-04-01T04:08:56;9.52;99.99
69823;SHT31;57119;52.516;13.508;2023-04-01T04:11:22;9.52;99.99
69823;SHT31;57119;52.516;13.508;2023-04-01T04:13:47;9.48;99.99
69823;SHT31;57119;52.516;13.508;2023-04-01T04:16:15;9.51;99.99
69823;SHT31;57119;52.516;13.508;2023-04-01T04:18:40;9.51;99.99
69823;SHT31;57119;52.516;13.508;2023-04-01T04:21:06;9.58;99.99
69823;SHT31;57119;52.516;13.508;2023-04-01T04:23:32;9.55;99.99
69823;SHT31;57119;52.516;13.508;2023-04-01T04:26:07;9.67;99.99
69823;SHT31;57119;52.516;13.508;2023-04-01T04:28:33;9.68;99.99
69823;SHT31;57119;52.516;13.508;2023-04-01T04:30:59;9.71;99.99
69823;SHT31;57119;52.516;13.508;2023-04-01T04:33:25;9.65;99.99
69823;SHT31;57119;52.516;13.508;2023-04-01T04:35:50;9.78;99.99
69823;SHT31;57119;52.516;13.508;2023-04-01T04:38:16;9.73;99.99
69823;SHT31;57119;52.516;13.508;2023-04-01T04:40:42;9.79;99.99
69823;SHT31;57119;52.516;13.508;2023-04-01T04:43:12;9.85;99.99
69823;SHT31;57119;52.516;13.508;2023-04-01T04:45:38;9.96;99.99
69823;SHT31;57119;52.516;13.508;2023-04-01T04:48:03;9.88;99.99
69823;SHT31;57119;52.516;13.508;2023-04-01T04:50:29;9.88;99.99
69823;SHT31;57119;52.516;13.508;2023-04-01T04:52:54;9.86;99.99
69823;SHT31;57119;52.516;13.508;2023-04-01T04:55:20;9.85;99.99
69823;SHT31;57119;52.516;13.508;2023-04-01T04:57:46;9.89;99.99
69823;SHT31;57119;52.516;13.508;2023-04-01T05:00:11;9.91;99.99
69823;SHT31;57119;52.516;13.508;2023-04-01T05:02:37;9.89;99.99
69823;SHT31;57119;52.516;13.508;2023-04-01T05:05:03;9.84;99.99
69823;SHT31;57119;52.516;13.508;2023-04-01T05:07:29;9.89;99.99
69823;SHT31;57119;52.516;13.508;2023-04-01T05:09:55;9.75;99.99
69823;SHT31;57119;52.516;13.508;2023-04-01T05:12:20;9.70;99.99
69823;SHT31;57119;52.516;13.508;2023-04-01T05:14:45;9.73;99.99
69823;SHT31;57119;52.516;13.508;2023-04-01T05:17:12;9.73;99.99
69823;SHT31;57119;52.516;13.508;2023-04-01T05:19:38;9.75;99.99
69823;SHT31;57119;52.516;13.508;2023-04-01T05:22:04;9.82;99.99
69823;SHT31;57119;52.516;13.508;2023-04-01T05:24:30;9.81;99.99
69823;SHT31;57119;52.516;13.508;2023-04-01T05:26:55;9.81;99.99
69823;SHT31;57119;52.516;13.508;2023-04-01T05:29:22;9.81;99.99
69823;SHT31;57119;52.516;13.508;2023-04-01T05:31:48;9.85;99.99
69823;SHT31;57119;52.516;13.508;2023-04-01T05:34:13;9.79;99.99
69823;SHT31;57119;52.516;13.508;2023-04-01T05:36:39;9.79;99.99
69823;SHT31;57119;52.516;13.508;2023-04-01T05:39:07;9.86;99.99
69823;SHT31;57119;52.516;13.508;2023-04-01T05:41:35;9.89;99.99
69823;SHT31;57119;52.516;13.508;2023-04-01T05:44:00;9.94;99.99
69823;SHT31;57119;52.516;13.508;2023-04-01T05:46:26;9.85;99.99
69823;SHT31;57119;52.516;13.508;2023-04-01T05:48:51;9.86;99.99
69823;SHT31;57119;52.516;13.508;2023-04-01T05:51:16;9.81;99.99
69823;SHT31;57119;52.516;13.508;2023-04-01T05:53:42;9.81;99.99
69823;SHT31;57119;52.516;13.508;2023-04-01T05:56:11;9.81;99.99
69823;SHT31;57119;52.516;13.508;2023-04-01T05:58:37;9.82;99.99
69823;SHT31;57119;52.516;13.508;2023-04-01T06:01:04;9.78;99.99
69823;SHT31;57119;52.516;13.508;2023-04-01T06:03:30;9.91;99.99
69823;SHT31;57119;52.516;13.508;2023-04-01T06:05:55;9.89;99.99
69823;SHT31;57119;52.516;13.508;2023-04-01T06:08:21;9.92;99.99
69823;SHT31;57119;52.516;13.508;2023-04-01T06:18:55;9.85;99.99
69823;SHT31;57119;52.516;13.508;2023-04-01T06:43:49;10.03;99.99
69823;SHT31;57119;52.516;13.508;2023-04-01T06:46:28;10.09;99.99
69823;SHT31;57119;52.516;13.508;2023-04-01T06:49:21;10.16;99.99
69823;SHT31;57119;52.516;13.508;2023-04-01T06:52:09;10.26;99.99
69823;SHT31;57119;52.516;13.508;2023-04-01T06:54:40;10.23;99.99
69823;SHT31;57119;52.516;13.508;2023-04-01T06:59:44;10.23;99.99
69823;SHT31;57119;52.516;13.508;2023-04-01T07:04:39;10.30;99.99
69823;SHT31;57119;52.516;13.508;2023-04-01T07:07:14;10.35;99.99
69823;SHT31;57119;52.516;13.508;2023-04-01T07:09:43;10.28;99.99
69823;SHT31;57119;52.516;13.508;2023-04-01T07:12:37;10.33;99.99
69823;SHT31;57119;52.516;13.508;2023-04-01T07:15:16;10.30;99.99
69823;SHT31;57119;52.516;13.508;2023-04-01T07:17:43;10.29;99.99
69823;SHT31;57119;52.516;13.508;2023-04-01T07:20:36;10.32;99.99
69823;SHT31;57119;52.516;13.508;2023-04-01T07:23:05;10.39;99.99
69823;SHT31;57119;52.516;13.508;2023-04-01T07:25:35;10.37;99.99
69823;SHT31;57119;52.516;13.508;2023-04-01T07:28:11;10.49;99.99
69823;SHT31;57119;52.516;13.508;2023-04-01T07:33:23;10.49;99.99
69823;SHT31;57119;52.516;13.508;2023-04-01T07:36:25;10.56;99.99
69823;SHT31;57119;52.516;13.508;2023-04-01T07:39:21;10.53;99.99
69823;SHT31;57119;52.516;13.508;2023-04-01T07:50:29;10.33;99.99
69823;SHT31;57119;52.516;13.508;2023-04-01T07:55:39;10.32;99.99
69823;SHT31;57119;52.516;13.508;2023-04-01T08:00:51;10.39;99.99
69823;SHT31;57119;52.516;13.508;2023-04-01T08:06:01;10.44;99.99
69823;SHT31;57119;52.516;13.508;2023-04-01T08:08:39;10.35;99.99
69823;SHT31;57119;52.516;13.508;2023-04-01T08:21:42;10.09;99.99
69823;SHT31;57119;52.516;13.508;2023-04-01T08:26:56;10.28;99.99
69823;SHT31;57119;52.516;13.508;2023-04-01T08:32:18;10.22;99.99
69823;SHT31;57119;52.516;13.508;2023-04-01T08:34:47;10.06;99.99
69823;SHT31;57119;52.516;13.508;2023-04-01T08:39:43;10.01;99.99
69823;SHT31;57119;52.516;13.508;2023-04-01T08:42:31;9.91;99.99
69823;SHT31;57119;52.516;13.508;2023-04-01T08:45:38;9.88;99.99
69823;SHT31;57119;52.516;13.508;2023-04-01T08:54:11;9.82;99.99
69823;SHT31;57119;52.516;13.508;2023-04-01T08:56:46;9.82;99.99
69823;SHT31;57119;52.516;13.508;2023-04-01T09:07:08;9.62;99.99
69823;SHT31;57119;52.516;13.508;2023-04-01T09:38:11;9.98;99.99
69823;SHT31;57119;52.516;13.508;2023-04-01T09:41:27;10.02;99.99
69823;SHT31;57119;52.516;13.508;2023-04-01T09:48:59;10.35;99.99
69823;SHT31;57119;52.516;13.508;2023-04-01T09:55:01;10.17;99.99
69823;SHT31;57119;52.516;13.508;2023-04-01T10:07:06;9.95;99.99
69823;SHT31;57119;52.516;13.508;2023-04-01T10:22:06;10.32;99.99
69823;SHT31;57119;52.516;13.508;2023-04-01T10:30:26;10.46;99.99
69823;SHT31;57119;52.516;13.508;2023-04-01T10:50:23;10.22;99.48
69823;SHT31;57119;52.516;13.508;2023-04-01T11:01:00;10.23;99.59
69823;SHT31;57119;52.516;13.508;2023-04-01T11:12:00;10.26;99.07
69823;SHT31;57119;52.516;13.508;2023-04-01T11:26:01;10.25;98.84
69823;SHT31;57119;52.516;13.508;2023-04-01T11:37:08;10.12;99.60
69823;SHT31;57119;52.516;13.508;2023-04-01T11:44:39;9.94;99.42
69823;SHT31;57119;52.516;13.508;2023-04-01T11:50:17;9.94;98.89
69823;SHT31;57119;52.516;13.508;2023-04-01T11:53:12;9.85;99.85
69823;SHT31;57119;52.516;13.508;2023-04-01T12:01:32;9.67;99.61
69823;SHT31;57119;52.516;13.508;2023-04-01T12:07:01;9.59;99.20
69823;SHT31;57119;52.516;13.508;2023-04-01T12:31:32;9.52;99.99
69823;SHT31;57119;52.516;13.508;2023-04-01T12:45:18;9.50;99.08
69823;SHT31;57119;52.516;13.508;2023-04-01T12:48:17;9.52;99.99
69823;SHT31;57119;52.516;13.508;2023-04-01T13:07:57;9.37;99.83
69823;SHT31;57119;52.516;13.508;2023-04-01T13:10:43;9.36;98.92
69823;SHT31;57119;52.516;13.508;2023-04-01T13:13:29;9.34;99.52
69823;SHT31;57119;52.516;13.508;2023-04-01T13:16:11;9.30;98.92
69823;SHT31;57119;52.516;13.508;2023-04-01T13:24:51;9.06;99.21
69823;SHT31;57119;52.516;13.508;2023-04-01T13:27:25;9.00;98.61
69823;SHT31;57119;52.516;13.508;2023-04-01T13:38:08;8.83;99.31
69823;SHT31;57119;52.516;13.508;2023-04-01T13:43:25;8.60;99.85
69823;SHT31;57119;52.516;13.508;2023-04-01T13:48:27;8.65;99.67
69823;SHT31;57119;52.516;13.508;2023-04-01T14:03:26;8.64;98.83
69823;SHT31;57119;52.516;13.508;2023-04-01T14:11:25;8.86;99.51
69823;SHT31;57119;52.516;13.508;2023-04-01T14:13:59;8.82;99.81
69823;SHT31;57119;52.516;13.508;2023-04-01T14:28:07;8.52;99.86
69823;SHT31;57119;52.516;13.508;2023-04-01T14:49:46;8.68;99.35
69823;SHT31;57119;52.516;13.508;2023-04-01T14:52:28;8.61;99.25
69823;SHT31;57119;52.516;13.508;2023-04-01T14:54:57;8.65;98.93
69823;SHT31;57119;52.516;13.508;2023-04-01T14:57:31;8.41;98.38
69823;SHT31;57119;52.516;13.508;2023-04-01T15:08:00;8.29;99.53
69823;SHT31;57119;52.516;13.508;2023-04-01T15:10:45;8.37;98.59
69823;SHT31;57119;52.516;13.508;2023-04-01T15:31:12;7.66;99.99
69823;SHT31;57119;52.516;13.508;2023-04-01T15:36:39;7.68;99.99
69823;SHT31;57119;52.516;13.508;2023-04-01T15:39:38;7.72;99.99
69823;SHT31;57119;52.516;13.508;2023-04-01T15:53:18;7.54;98.70
69823;SHT31;57119;52.516;13.508;2023-04-01T16:02:15;7.47;98.89
69823;SHT31;57119;52.516;13.508;2023-04-01T16:04:59;7.40;99.42
69823;SHT31;57119;52.516;13.508;2023-04-01T16:08:09;7.21;99.81
69823;SHT31;57119;52.516;13.508;2023-04-01T16:10:55;7.23;99.99
69823;SHT31;57119;52.516;13.508;2023-04-01T16:13:33;7.11;99.99
69823;SHT31;57119;52.516;13.508;2023-04-01T16:16:27;7.03;99.99
69823;SHT31;57119;52.516;13.508;2023-04-01T16:32:23;6.82;99.99
69823;SHT31;57119;52.516;13.508;2023-04-01T16:35:21;6.82;99.99
69823;SHT31;57119;52.516;13.508;2023-04-01T16:38:13;6.71;99.99
69823;SHT31;57119;52.516;13.508;2023-04-01T16:40:44;6.65;99.92
69823;SHT31;57119;52.516;13.508;2023-04-01T16:43:25;6.77;99.99
69823;SHT31;57119;52.516;13.508;2023-04-01T16:51:18;6.53;99.93
69823;SHT31;57119;52.516;13.508;2023-04-01T16:53:50;6.50;99.99
69823;SHT31;57119;52.516;13.508;2023-04-01T16:56:27;6.42;99.68
69823;SHT31;57119;52.516;13.508;2023-04-01T17:01:40;6.34;99.84
69823;SHT31;57119;52.516;13.508;2023-04-01T17:06:58;6.28;99.99
69823;SHT31;57119;52.516;13.508;2023-04-01T17:23:07;5.90;99.99
69823;SHT31;57119;52.516;13.508;2023-04-01T17:25:47;5.94;99.99
69823;SHT31;57119;52.516;13.508;2023-04-01T17:39:29;5.89;99.99
69823;SHT31;57119;52.516;13.508;2023-04-01T17:42:22;5.81;99.99
69823;SHT31;57119;52.516;13.508;2023-04-01T17:47:43;5.69;99.99
69823;SHT31;57119;52.516;13.508;2023-04-01T17:56:27;5.60;99.99
69823;SHT31;57119;52.516;13.508;2023-04-01T17:59:18;5.52;99.99
69823;SHT31;57119;52.516;13.508;2023-04-01T18:02:07;5.58;99.99
69823;SHT31;57119;52.516;13.508;2023-04-01T18:05:05;5.42;99.99
69823;SHT31;57119;52.516;13.508;2023-04-01T18:11:09;5.39;99.99
69823;SHT31;57119;52.516;13.508;2023-04-01T18:21:55;5.38;99.99
69823;SHT31;57119;52.516;13.508;2023-04-01T18:24:30;5.29;99.99
69823;SHT31;57119;52.516;13.508;2023-04-01T18:27:06;5.32;99.99
69823;SHT31;57119;52.516;13.508;2023-04-01T18:32:15;5.21;99.99
69823;SHT31;57119;52.516;13.508;2023-04-01T18:37:18;5.17;99.99
69823;SHT31;57119;52.516;13.508;2023-04-01T18:40:00;5.17;99.99
69823;SHT31;57119;52.516;13.508;2023-04-01T18:48:03;5.17;99.99
69823;SHT31;57119;52.516;13.508;2023-04-01T18:50:55;5.12;99.99
69823;SHT31;57119;52.516;13.508;2023-04-01T18:53:34;5.14;99.99
69823;SHT31;57119;52.516;13.508;2023-04-01T18:56:06;5.10;99.99
69823;SHT31;57119;52.516;13.508;2023-04-01T18:58:53;5.18;99.99
69823;SHT31;57119;52.516;13.508;2023-04-01T19:01:31;5.11;99.99
69823;SHT31;57119;52.516;13.508;2023-04-01T19:04:21;5.12;99.99
69823;SHT31;57119;52.516;13.508;2023-04-01T19:06:54;5.02;99.99
69823;SHT31;57119;52.516;13.508;2023-04-01T19:09:29;5.01;99.99
69823;SHT31;57119;52.516;13.508;2023-04-01T19:20:43;4.98;99.99
69823;SHT31;57119;52.516;13.508;2023-04-01T19:25:55;4.90;99.99
69823;SHT31;57119;52.516;13.508;2023-04-01T19:28:36;4.87;99.99
69823;SHT31;57119;52.516;13.508;2023-04-01T19:52:46;4.57;99.99
69823;SHT31;57119;52.516;13.508;2023-04-01T19:55:35;4.54;99.99
69823;SHT31;57119;52.516;13.508;2023-04-01T20:08:17;4.63;99.99
69823;SHT31;57119;52.516;13.508;2023-04-01T20:13:32;4.54;99.99
69823;SHT31;57119;52.516;13.508;2023-04-01T20:16:04;4.63;99.99
69823;SHT31;57119;52.516;13.508;2023-04-01T20:24:00;4.57;99.99
69823;SHT31;57119;52.516;13.508;2023-04-01T20:27:31;4.57;99.99
69823;SHT31;57119;52.516;13.508;2023-04-01T20:29:45;4.52;99.99
69823;SHT31;57119;52.516;13.508;2023-04-01T20:43:20;4.21;99.99
69823;SHT31;57119;52.516;13.508;2023-04-01T20:46:04;4.24;99.99
69823;SHT31;57119;52.516;13.508;2023-04-01T20:51:37;4.15;99.99
69823;SHT31;57119;52.516;13.508;2023-04-01T20:54:55;4.09;99.99
69823;SHT31;57119;52.516;13.508;2023-04-01T20:57:14;4.12;99.99
69823;SHT31;57119;52.516;13.508;2023-04-01T21:16:26;3.87;99.99
69823;SHT31;57119;52.516;13.508;2023-04-01T21:19:15;3.88;99.99
69823;SHT31;57119;52.516;13.508;2023-04-01T21:27:32;3.78;99.99
69823;SHT31;57119;52.516;13.508;2023-04-01T21:33:06;3.80;99.90
69823;SHT31;57119;52.516;13.508;2023-04-01T21:35:48;3.80;99.99
69823;SHT31;57119;52.516;13.508;2023-04-01T21:53:00;3.77;99.64
69823;SHT31;57119;52.516;13.508;2023-04-01T22:01:12;3.71;98.84
69823;SHT31;57119;52.516;13.508;2023-04-01T22:06:37;3.69;98.31
69823;SHT31;57119;52.516;13.508;2023-04-01T22:09:18;3.64;98.14
69823;SHT31;57119;52.516;13.508;2023-04-01T22:14:39;3.63;99.21
69823;SHT31;57119;52.516;13.508;2023-04-01T22:25:17;3.62;98.31
69823;SHT31;57119;52.516;13.508;2023-04-01T22:27:58;3.63;98.43
69823;SHT31;57119;52.516;13.508;2023-04-01T22:30:36;3.69;98.45
69823;SHT31;57119;52.516;13.508;2023-04-01T22:33:30;3.60;98.08
69823;SHT31;57119;52.516;13.508;2023-04-01T22:43:54;3.57;97.14
69823;SHT31;57119;52.516;13.508;2023-04-01T22:46:53;3.57;97.82
69823;SHT31;57119;52.516;13.508;2023-04-01T22:52:00;3.64;96.42
69823;SHT31;57119;52.516;13.508;2023-04-01T22:57:56;3.59;96.78
69823;SHT31;57119;52.516;13.508;2023-04-01T23:00:10;3.53;97.12
69823;SHT31;57119;52.516;13.508;2023-04-01T23:03:24;3.56;96.83
69823;SHT31;57119;52.516;13.508;2023-04-01T23:05:30;3.54;96.66
69823;SHT31;57119;52.516;13.508;2023-04-01T23:10:54;3.50;95.88
69823;SHT31;57119;52.516;13.508;2023-04-01T23:13:46;3.54;96.63
69823;SHT31;57119;52.516;13.508;2023-04-01T23:16:14;3.53;96.10
69823;SHT31;57119;52.516;13.508;2023-04-01T23:24:37;3.44;96.12
69823;SHT31;57119;52.516;13.508;2023-04-01T23:27:16;3.49;96.47
69823;SHT31;57119;52.516;13.508;2023-04-01T23:29:43;3.49;96.21
69823;SHT31;57119;52.516;13.508;2023-04-01T23:32:17;3.49;96.31
69823;SHT31;57119;52.516;13.508;2023-04-01T23:34:51;3.50;95.74
69823;SHT31;57119;52.516;13.508;2023-04-01T23:37:18;3.49;95.69
69823;SHT31;57119;52.516;13.508;2023-04-01T23:39:46;3.49;96.54
69823;SHT31;57119;52.516;13.508;2023-04-01T23:42:37;3.42;96.08
69823;SHT31;57119;52.516;13.508;2023-04-01T23:45:16;3.49;96.13
69823;SHT31;57119;52.516;13.508;2023-04-01T23:47:45;3.47;95.69
69823;SHT31;57119;52.516;13.508;2023-04-01T23:50:18;3.44;95.80
69823;SHT31;57119;52.516;13.508;2023-04-01T23:52:52;3.43;95.95
69823;SHT31;57119;52.516;13.508;2023-04-01T23:55:23;3.47;96.03
